Parksville, Kentucky
Current Conditions -  °F | °C
As of 1:35 PM on Sunday 23 Nov 2014 (Local Time) from KDVK Reporting Station
Light Rain Light Rain  
Wind Chill: 52°   Ceiling: 4100
Heat Index: 52°   Visibility: 10mi
Dew Point: 48°   Wind: 7mph
Humidity: 88%   Direction: 150°SSE
Pressure: 29.77"   Gusts: NA
Location:  37.6°N, 84.89°W
Report Text: KDVK 231835Z AUTO 15006KT 10SM -RA BKN041 OVC048 11/09 A2977 RMK AO2
Loading
Personal Weather Stations






























Interactive Weather Map New forecast layout! Learn more

10-Day Weather Forecast

Advertisements
Track Severe Weather on mobile